sensor_id;sensor_type;location;lat;lon;timestamp;P1;durP1;ratioP1;P2;durP2;ratioP2
19816;SDS011;68323;49.394;8.434;2023-08-06T00:01:49;6.90;;;4.00;;
19816;SDS011;68323;49.394;8.434;2023-08-06T00:04:14;11.13;;;4.47;;
19816;SDS011;68323;49.394;8.434;2023-08-06T00:06:40;6.87;;;4.23;;
19816;SDS011;68323;49.394;8.434;2023-08-06T00:09:05;6.40;;;4.23;;
19816;SDS011;68323;49.394;8.434;2023-08-06T00:11:31;7.43;;;4.00;;
19816;SDS011;68323;49.394;8.434;2023-08-06T00:13:56;5.77;;;4.00;;
19816;SDS011;68323;49.394;8.434;2023-08-06T00:16:22;4.90;;;4.03;;
19816;SDS011;68323;49.394;8.434;2023-08-06T00:18:48;7.50;;;3.90;;
19816;SDS011;68323;49.394;8.434;2023-08-06T00:21:13;3.90;;;3.50;;
19816;SDS011;68323;49.394;8.434;2023-08-06T00:23:39;8.50;;;3.57;;
19816;SDS011;68323;49.394;8.434;2023-08-06T00:26:05;5.50;;;3.47;;
19816;SDS011;68323;49.394;8.434;2023-08-06T00:28:31;5.93;;;3.63;;
19816;SDS011;68323;49.394;8.434;2023-08-06T00:30:56;6.93;;;3.77;;
19816;SDS011;68323;49.394;8.434;2023-08-06T00:33:22;7.43;;;3.53;;
19816;SDS011;68323;49.394;8.434;2023-08-06T00:35:48;5.87;;;3.33;;
19816;SDS011;68323;49.394;8.434;2023-08-06T00:38:14;5.93;;;3.53;;
19816;SDS011;68323;49.394;8.434;2023-08-06T00:40:39;3.90;;;3.07;;
19816;SDS011;68323;49.394;8.434;2023-08-06T00:43:05;5.17;;;3.30;;
19816;SDS011;68323;49.394;8.434;2023-08-06T00:45:31;3.33;;;3.03;;
19816;SDS011;68323;49.394;8.434;2023-08-06T00:48:00;8.23;;;3.20;;
19816;SDS011;68323;49.394;8.434;2023-08-06T00:50:26;6.43;;;3.20;;
19816;SDS011;68323;49.394;8.434;2023-08-06T00:52:52;11.43;;;3.77;;
19816;SDS011;68323;49.394;8.434;2023-08-06T00:55:18;4.37;;;3.20;;
19816;SDS011;68323;49.394;8.434;2023-08-06T00:57:44;5.23;;;3.13;;
19816;SDS011;68323;49.394;8.434;2023-08-06T01:00:09;7.50;;;3.23;;
19816;SDS011;68323;49.394;8.434;2023-08-06T01:02:36;3.83;;;3.03;;
19816;SDS011;68323;49.394;8.434;2023-08-06T01:05:02;6.30;;;3.17;;
19816;SDS011;68323;49.394;8.434;2023-08-06T01:07:43;6.57;;;3.00;;
19816;SDS011;68323;49.394;8.434;2023-08-06T01:12:49;4.73;;;2.80;;
19816;SDS011;68323;49.394;8.434;2023-08-06T01:15:35;4.70;;;3.40;;
19816;SDS011;68323;49.394;8.434;2023-08-06T01:18:07;5.77;;;2.73;;
19816;SDS011;68323;49.394;8.434;2023-08-06T01:20:33;5.57;;;2.80;;
19816;SDS011;68323;49.394;8.434;2023-08-06T01:22:58;6.57;;;2.87;;
19816;SDS011;68323;49.394;8.434;2023-08-06T01:25:33;4.40;;;2.80;;
19816;SDS011;68323;49.394;8.434;2023-08-06T01:28:05;4.07;;;2.77;;
19816;SDS011;68323;49.394;8.434;2023-08-06T01:30:37;4.93;;;2.70;;
19816;SDS011;68323;49.394;8.434;2023-08-06T01:33:06;4.50;;;2.80;;
19816;SDS011;68323;49.394;8.434;2023-08-06T01:35:34;5.40;;;2.67;;
19816;SDS011;68323;49.394;8.434;2023-08-06T01:38:02;4.33;;;2.87;;
19816;SDS011;68323;49.394;8.434;2023-08-06T01:40:28;4.27;;;2.87;;
19816;SDS011;68323;49.394;8.434;2023-08-06T01:42:54;4.00;;;3.10;;
19816;SDS011;68323;49.394;8.434;2023-08-06T01:45:20;5.03;;;2.53;;
19816;SDS011;68323;49.394;8.434;2023-08-06T01:47:45;6.37;;;2.70;;
19816;SDS011;68323;49.394;8.434;2023-08-06T01:50:11;4.57;;;3.10;;
19816;SDS011;68323;49.394;8.434;2023-08-06T01:52:36;4.93;;;2.83;;
19816;SDS011;68323;49.394;8.434;2023-08-06T01:55:02;2.90;;;2.57;;
19816;SDS011;68323;49.394;8.434;2023-08-06T01:57:28;6.13;;;2.90;;
19816;SDS011;68323;49.394;8.434;2023-08-06T01:59:53;4.60;;;2.90;;
19816;SDS011;68323;49.394;8.434;2023-08-06T02:02:19;6.87;;;2.80;;
19816;SDS011;68323;49.394;8.434;2023-08-06T02:04:44;4.47;;;3.00;;
19816;SDS011;68323;49.394;8.434;2023-08-06T02:07:10;5.17;;;2.97;;
19816;SDS011;68323;49.394;8.434;2023-08-06T02:09:35;4.73;;;3.00;;
19816;SDS011;68323;49.394;8.434;2023-08-06T02:12:01;4.90;;;2.90;;
19816;SDS011;68323;49.394;8.434;2023-08-06T02:14:27;5.70;;;2.83;;
19816;SDS011;68323;49.394;8.434;2023-08-06T02:16:53;5.50;;;3.00;;
19816;SDS011;68323;49.394;8.434;2023-08-06T02:19:18;3.90;;;2.97;;
19816;SDS011;68323;49.394;8.434;2023-08-06T02:21:44;3.70;;;2.67;;
19816;SDS011;68323;49.394;8.434;2023-08-06T02:24:09;6.97;;;3.00;;
19816;SDS011;68323;49.394;8.434;2023-08-06T02:26:35;7.07;;;2.80;;
19816;SDS011;68323;49.394;8.434;2023-08-06T02:29:00;3.67;;;2.80;;
19816;SDS011;68323;49.394;8.434;2023-08-06T02:31:26;4.10;;;2.93;;
19816;SDS011;68323;49.394;8.434;2023-08-06T02:33:51;4.13;;;3.00;;
19816;SDS011;68323;49.394;8.434;2023-08-06T02:36:18;4.37;;;2.97;;
19816;SDS011;68323;49.394;8.434;2023-08-06T02:38:44;4.50;;;3.00;;
19816;SDS011;68323;49.394;8.434;2023-08-06T02:41:09;4.97;;;3.13;;
19816;SDS011;68323;49.394;8.434;2023-08-06T02:43:35;5.23;;;2.83;;
19816;SDS011;68323;49.394;8.434;2023-08-06T02:46:00;3.70;;;2.53;;
19816;SDS011;68323;49.394;8.434;2023-08-06T02:48:26;5.47;;;3.17;;
19816;SDS011;68323;49.394;8.434;2023-08-06T02:50:52;5.60;;;3.00;;
19816;SDS011;68323;49.394;8.434;2023-08-06T02:53:21;4.77;;;2.90;;
19816;SDS011;68323;49.394;8.434;2023-08-06T02:55:47;6.27;;;2.97;;
19816;SDS011;68323;49.394;8.434;2023-08-06T02:58:13;6.67;;;2.90;;
19816;SDS011;68323;49.394;8.434;2023-08-06T03:00:39;5.23;;;2.87;;
19816;SDS011;68323;49.394;8.434;2023-08-06T03:03:05;4.27;;;2.70;;
19816;SDS011;68323;49.394;8.434;2023-08-06T03:05:31;7.50;;;3.30;;
19816;SDS011;68323;49.394;8.434;2023-08-06T03:07:56;4.60;;;3.00;;
19816;SDS011;68323;49.394;8.434;2023-08-06T03:10:22;7.37;;;2.63;;
19816;SDS011;68323;49.394;8.434;2023-08-06T03:12:47;5.40;;;2.50;;
19816;SDS011;68323;49.394;8.434;2023-08-06T03:15:13;6.23;;;3.00;;
19816;SDS011;68323;49.394;8.434;2023-08-06T03:17:38;5.90;;;2.70;;
19816;SDS011;68323;49.394;8.434;2023-08-06T03:20:05;7.97;;;2.63;;
19816;SDS011;68323;49.394;8.434;2023-08-06T03:22:31;6.90;;;2.50;;
19816;SDS011;68323;49.394;8.434;2023-08-06T03:24:56;6.53;;;2.70;;
19816;SDS011;68323;49.394;8.434;2023-08-06T03:27:22;3.73;;;2.43;;
19816;SDS011;68323;49.394;8.434;2023-08-06T03:29:50;4.57;;;2.23;;
19816;SDS011;68323;49.394;8.434;2023-08-06T03:32:16;6.60;;;2.67;;
19816;SDS011;68323;49.394;8.434;2023-08-06T03:34:41;5.17;;;2.50;;
19816;SDS011;68323;49.394;8.434;2023-08-06T03:37:07;4.43;;;2.73;;
19816;SDS011;68323;49.394;8.434;2023-08-06T03:39:33;4.67;;;2.87;;
19816;SDS011;68323;49.394;8.434;2023-08-06T03:41:59;7.43;;;3.10;;
19816;SDS011;68323;49.394;8.434;2023-08-06T03:44:24;5.70;;;2.80;;
19816;SDS011;68323;49.394;8.434;2023-08-06T03:46:50;4.27;;;2.77;;
19816;SDS011;68323;49.394;8.434;2023-08-06T03:49:15;9.83;;;2.90;;
19816;SDS011;68323;49.394;8.434;2023-08-06T03:51:41;5.77;;;2.73;;
19816;SDS011;68323;49.394;8.434;2023-08-06T03:54:06;7.27;;;2.93;;
19816;SDS011;68323;49.394;8.434;2023-08-06T03:56:32;8.00;;;2.97;;
19816;SDS011;68323;49.394;8.434;2023-08-06T03:58:57;6.07;;;2.77;;
19816;SDS011;68323;49.394;8.434;2023-08-06T04:01:23;5.80;;;2.43;;
19816;SDS011;68323;49.394;8.434;2023-08-06T04:03:48;5.43;;;2.70;;
19816;SDS011;68323;49.394;8.434;2023-08-06T04:06:14;6.43;;;2.53;;
19816;SDS011;68323;49.394;8.434;2023-08-06T04:08:39;7.37;;;2.43;;
19816;SDS011;68323;49.394;8.434;2023-08-06T04:11:05;6.30;;;2.60;;
19816;SDS011;68323;49.394;8.434;2023-08-06T04:13:30;6.10;;;2.80;;
19816;SDS011;68323;49.394;8.434;2023-08-06T04:16:00;5.23;;;2.70;;
19816;SDS011;68323;49.394;8.434;2023-08-06T04:18:26;6.90;;;2.83;;
19816;SDS011;68323;49.394;8.434;2023-08-06T04:20:51;5.63;;;2.60;;
19816;SDS011;68323;49.394;8.434;2023-08-06T04:23:20;4.10;;;2.47;;
19816;SDS011;68323;49.394;8.434;2023-08-06T04:25:45;8.60;;;2.43;;
19816;SDS011;68323;49.394;8.434;2023-08-06T04:28:11;7.67;;;2.70;;
19816;SDS011;68323;49.394;8.434;2023-08-06T04:30:37;7.23;;;2.00;;
19816;SDS011;68323;49.394;8.434;2023-08-06T04:33:02;6.70;;;1.90;;
19816;SDS011;68323;49.394;8.434;2023-08-06T04:35:28;4.73;;;1.60;;
19816;SDS011;68323;49.394;8.434;2023-08-06T04:37:53;3.30;;;1.30;;
19816;SDS011;68323;49.394;8.434;2023-08-06T04:40:19;3.40;;;1.30;;
19816;SDS011;68323;49.394;8.434;2023-08-06T04:42:44;2.93;;;1.30;;
19816;SDS011;68323;49.394;8.434;2023-08-06T04:45:10;4.67;;;1.40;;
19816;SDS011;68323;49.394;8.434;2023-08-06T04:47:35;3.00;;;1.30;;
19816;SDS011;68323;49.394;8.434;2023-08-06T04:50:01;4.57;;;1.30;;
19816;SDS011;68323;49.394;8.434;2023-08-06T04:52:26;2.17;;;1.00;;
19816;SDS011;68323;49.394;8.434;2023-08-06T04:54:53;5.80;;;1.30;;
19816;SDS011;68323;49.394;8.434;2023-08-06T04:57:19;4.70;;;1.40;;
19816;SDS011;68323;49.394;8.434;2023-08-06T04:59:45;4.97;;;1.77;;
19816;SDS011;68323;49.394;8.434;2023-08-06T05:02:10;5.17;;;1.60;;
19816;SDS011;68323;49.394;8.434;2023-08-06T05:04:36;3.57;;;1.43;;
19816;SDS011;68323;49.394;8.434;2023-08-06T05:07:02;5.33;;;1.30;;
19816;SDS011;68323;49.394;8.434;2023-08-06T05:09:28;4.10;;;1.40;;
19816;SDS011;68323;49.394;8.434;2023-08-06T05:11:53;6.80;;;1.60;;
19816;SDS011;68323;49.394;8.434;2023-08-06T05:14:19;6.47;;;1.63;;
19816;SDS011;68323;49.394;8.434;2023-08-06T05:16:44;5.30;;;1.80;;
19816;SDS011;68323;49.394;8.434;2023-08-06T05:19:10;3.63;;;1.40;;
19816;SDS011;68323;49.394;8.434;2023-08-06T05:21:35;5.03;;;1.57;;
19816;SDS011;68323;49.394;8.434;2023-08-06T05:24:01;4.40;;;1.60;;
19816;SDS011;68323;49.394;8.434;2023-08-06T05:26:26;6.67;;;1.97;;
19816;SDS011;68323;49.394;8.434;2023-08-06T05:28:52;4.63;;;1.97;;
19816;SDS011;68323;49.394;8.434;2023-08-06T05:31:17;6.30;;;1.80;;
19816;SDS011;68323;49.394;8.434;2023-08-06T05:33:43;6.70;;;1.57;;
19816;SDS011;68323;49.394;8.434;2023-08-06T05:36:09;5.53;;;1.53;;
19816;SDS011;68323;49.394;8.434;2023-08-06T05:38:34;11.13;;;2.30;;
19816;SDS011;68323;49.394;8.434;2023-08-06T05:41:00;11.53;;;2.10;;
19816;SDS011;68323;49.394;8.434;2023-08-06T05:43:25;5.80;;;1.60;;
19816;SDS011;68323;49.394;8.434;2023-08-06T05:45:51;4.87;;;1.47;;
19816;SDS011;68323;49.394;8.434;2023-08-06T05:48:16;5.27;;;1.50;;
19816;SDS011;68323;49.394;8.434;2023-08-06T05:50:42;9.50;;;1.50;;
19816;SDS011;68323;49.394;8.434;2023-08-06T05:53:07;48.23;;;2.03;;
19816;SDS011;68323;49.394;8.434;2023-08-06T05:55:33;41.80;;;2.10;;
19816;SDS011;68323;49.394;8.434;2023-08-06T05:57:59;20.83;;;2.10;;
19816;SDS011;68323;49.394;8.434;2023-08-06T06:00:26;6.37;;;1.53;;
19816;SDS011;68323;49.394;8.434;2023-08-06T06:02:52;7.20;;;1.50;;
19816;SDS011;68323;49.394;8.434;2023-08-06T06:05:17;4.63;;;1.23;;
19816;SDS011;68323;49.394;8.434;2023-08-06T06:07:43;4.30;;;1.40;;
19816;SDS011;68323;49.394;8.434;2023-08-06T06:10:08;7.17;;;1.87;;
19816;SDS011;68323;49.394;8.434;2023-08-06T06:12:34;5.67;;;1.23;;
19816;SDS011;68323;49.394;8.434;2023-08-06T06:14:59;9.87;;;1.77;;
19816;SDS011;68323;49.394;8.434;2023-08-06T06:17:26;5.30;;;1.47;;
19816;SDS011;68323;49.394;8.434;2023-08-06T06:19:52;5.13;;;1.33;;
19816;SDS011;68323;49.394;8.434;2023-08-06T06:22:17;4.47;;;1.20;;
19816;SDS011;68323;49.394;8.434;2023-08-06T06:24:43;5.47;;;1.13;;
19816;SDS011;68323;49.394;8.434;2023-08-06T06:27:08;4.83;;;1.30;;
19816;SDS011;68323;49.394;8.434;2023-08-06T06:29:34;4.10;;;1.07;;
19816;SDS011;68323;49.394;8.434;2023-08-06T06:31:59;4.50;;;1.20;;
19816;SDS011;68323;49.394;8.434;2023-08-06T06:34:25;4.53;;;1.00;;
19816;SDS011;68323;49.394;8.434;2023-08-06T06:36:50;3.60;;;0.73;;
19816;SDS011;68323;49.394;8.434;2023-08-06T06:39:17;3.63;;;0.73;;
19816;SDS011;68323;49.394;8.434;2023-08-06T06:41:43;3.00;;;1.00;;
19816;SDS011;68323;49.394;8.434;2023-08-06T06:44:09;3.43;;;1.00;;
19816;SDS011;68323;49.394;8.434;2023-08-06T06:46:35;2.33;;;0.90;;
19816;SDS011;68323;49.394;8.434;2023-08-06T06:49:00;4.77;;;1.10;;
19816;SDS011;68323;49.394;8.434;2023-08-06T06:51:26;2.87;;;0.97;;
19816;SDS011;68323;49.394;8.434;2023-08-06T06:53:52;2.57;;;0.80;;
19816;SDS011;68323;49.394;8.434;2023-08-06T06:56:17;1.63;;;0.60;;
19816;SDS011;68323;49.394;8.434;2023-08-06T06:58:43;2.27;;;0.70;;
19816;SDS011;68323;49.394;8.434;2023-08-06T07:01:09;1.50;;;0.60;;
19816;SDS011;68323;49.394;8.434;2023-08-06T07:03:36;2.43;;;0.60;;
19816;SDS011;68323;49.394;8.434;2023-08-06T07:06:02;3.50;;;0.70;;
19816;SDS011;68323;49.394;8.434;2023-08-06T07:08:29;1.70;;;0.60;;
19816;SDS011;68323;49.394;8.434;2023-08-06T07:11:05;3.33;;;0.50;;
19816;SDS011;68323;49.394;8.434;2023-08-06T07:13:31;1.10;;;0.40;;
19816;SDS011;68323;49.394;8.434;2023-08-06T07:15:57;2.63;;;0.60;;
19816;SDS011;68323;49.394;8.434;2023-08-06T07:18:26;1.73;;;0.57;;
19816;SDS011;68323;49.394;8.434;2023-08-06T07:20:52;1.17;;;0.47;;
19816;SDS011;68323;49.394;8.434;2023-08-06T07:23:20;0.67;;;0.40;;
19816;SDS011;68323;49.394;8.434;2023-08-06T07:25:46;1.20;;;0.40;;
19816;SDS011;68323;49.394;8.434;2023-08-06T07:28:13;2.33;;;0.60;;
19816;SDS011;68323;49.394;8.434;2023-08-06T07:30:41;1.63;;;0.30;;
19816;SDS011;68323;49.394;8.434;2023-08-06T07:33:08;1.63;;;0.40;;
19816;SDS011;68323;49.394;8.434;2023-08-06T07:35:34;1.80;;;0.50;;
19816;SDS011;68323;49.394;8.434;2023-08-06T07:38:00;1.73;;;0.43;;
19816;SDS011;68323;49.394;8.434;2023-08-06T07:40:26;4.00;;;0.53;;
19816;SDS011;68323;49.394;8.434;2023-08-06T07:42:51;1.10;;;0.40;;
19816;SDS011;68323;49.394;8.434;2023-08-06T07:45:17;1.20;;;0.50;;
19816;SDS011;68323;49.394;8.434;2023-08-06T07:47:42;3.37;;;0.47;;
19816;SDS011;68323;49.394;8.434;2023-08-06T07:50:08;1.53;;;0.40;;
19816;SDS011;68323;49.394;8.434;2023-08-06T07:52:34;1.13;;;0.30;;
19816;SDS011;68323;49.394;8.434;2023-08-06T07:55:00;1.10;;;0.40;;
19816;SDS011;68323;49.394;8.434;2023-08-06T07:57:29;0.63;;;0.40;;
19816;SDS011;68323;49.394;8.434;2023-08-06T07:59:59;1.80;;;0.50;;
19816;SDS011;68323;49.394;8.434;2023-08-06T08:02:25;0.90;;;0.30;;
19816;SDS011;68323;49.394;8.434;2023-08-06T08:04:50;2.10;;;0.40;;
19816;SDS011;68323;49.394;8.434;2023-08-06T08:07:16;2.40;;;0.30;;
19816;SDS011;68323;49.394;8.434;2023-08-06T08:09:42;1.03;;;0.20;;
19816;SDS011;68323;49.394;8.434;2023-08-06T08:12:07;0.40;;;0.30;;
19816;SDS011;68323;49.394;8.434;2023-08-06T08:14:33;0.83;;;0.30;;
19816;SDS011;68323;49.394;8.434;2023-08-06T08:17:04;0.30;;;0.30;;
19816;SDS011;68323;49.394;8.434;2023-08-06T08:19:30;1.67;;;0.30;;
19816;SDS011;68323;49.394;8.434;2023-08-06T08:21:59;0.43;;;0.30;;
19816;SDS011;68323;49.394;8.434;2023-08-06T08:24:25;0.70;;;0.30;;
19816;SDS011;68323;49.394;8.434;2023-08-06T08:26:51;1.03;;;0.30;;
19816;SDS011;68323;49.394;8.434;2023-08-06T08:29:17;1.80;;;0.30;;
19816;SDS011;68323;49.394;8.434;2023-08-06T08:31:44;0.70;;;0.30;;
19816;SDS011;68323;49.394;8.434;2023-08-06T08:34:09;0.53;;;0.20;;
19816;SDS011;68323;49.394;8.434;2023-08-06T08:36:35;0.50;;;0.23;;
19816;SDS011;68323;49.394;8.434;2023-08-06T08:39:01;1.40;;;0.50;;
19816;SDS011;68323;49.394;8.434;2023-08-06T08:41:29;2.00;;;0.30;;
19816;SDS011;68323;49.394;8.434;2023-08-06T08:43:56;1.07;;;0.30;;
19816;SDS011;68323;49.394;8.434;2023-08-06T08:46:26;0.85;;;0.20;;
19816;SDS011;68323;49.394;8.434;2023-08-06T08:48:54;0.68;;;0.40;;
19816;SDS011;68323;49.394;8.434;2023-08-06T08:51:20;1.75;;;0.20;;
19816;SDS011;68323;49.394;8.434;2023-08-06T08:53:46;0.35;;;0.30;;
19816;SDS011;68323;49.394;8.434;2023-08-06T08:56:13;0.77;;;0.35;;
19816;SDS011;68323;49.394;8.434;2023-08-06T08:58:39;0.55;;;0.20;;
19816;SDS011;68323;49.394;8.434;2023-08-06T09:01:05;0.63;;;0.32;;
19816;SDS011;68323;49.394;8.434;2023-08-06T09:03:32;0.32;;;0.20;;
19816;SDS011;68323;49.394;8.434;2023-08-06T09:05:59;1.92;;;0.30;;
19816;SDS011;68323;49.394;8.434;2023-08-06T09:08:27;0.95;;;0.40;;
19816;SDS011;68323;49.394;8.434;2023-08-06T09:10:57;0.70;;;0.20;;
19816;SDS011;68323;49.394;8.434;2023-08-06T09:13:24;0.50;;;0.30;;
19816;SDS011;68323;49.394;8.434;2023-08-06T09:15:50;0.65;;;0.20;;
19816;SDS011;68323;49.394;8.434;2023-08-06T09:18:24;0.82;;;0.20;;
19816;SDS011;68323;49.394;8.434;2023-08-06T09:20:51;0.52;;;0.20;;
19816;SDS011;68323;49.394;8.434;2023-08-06T09:23:17;0.85;;;0.20;;
19816;SDS011;68323;49.394;8.434;2023-08-06T09:25:42;0.40;;;0.30;;
19816;SDS011;68323;49.394;8.434;2023-08-06T09:28:08;0.93;;;0.30;;
19816;SDS011;68323;49.394;8.434;2023-08-06T09:30:35;0.20;;;0.20;;
19816;SDS011;68323;49.394;8.434;2023-08-06T09:33:02;0.77;;;0.30;;
19816;SDS011;68323;49.394;8.434;2023-08-06T09:35:28;0.88;;;0.20;;
19816;SDS011;68323;49.394;8.434;2023-08-06T09:37:55;0.28;;;0.20;;
19816;SDS011;68323;49.394;8.434;2023-08-06T09:42:56;0.20;;;0.20;;
19816;SDS011;68323;49.394;8.434;2023-08-06T09:45:23;0.20;;;0.20;;
19816;SDS011;68323;49.394;8.434;2023-08-06T09:47:56;0.25;;;0.20;;
19816;SDS011;68323;49.394;8.434;2023-08-06T09:50:22;0.20;;;0.20;;
19816;SDS011;68323;49.394;8.434;2023-08-06T09:52:48;0.30;;;0.20;;
19816;SDS011;68323;49.394;8.434;2023-08-06T09:55:15;0.53;;;0.20;;
19816;SDS011;68323;49.394;8.434;2023-08-06T09:57:41;1.37;;;0.30;;
19816;SDS011;68323;49.394;8.434;2023-08-06T10:00:08;0.20;;;0.20;;
19816;SDS011;68323;49.394;8.434;2023-08-06T10:02:37;0.10;;;0.10;;
19816;SDS011;68323;49.394;8.434;2023-08-06T10:05:04;0.73;;;0.20;;
19816;SDS011;68323;49.394;8.434;2023-08-06T10:07:30;0.30;;;0.20;;
19816;SDS011;68323;49.394;8.434;2023-08-06T10:09:56;0.20;;;0.10;;
19816;SDS011;68323;49.394;8.434;2023-08-06T10:12:22;0.83;;;0.40;;
19816;SDS011;68323;49.394;8.434;2023-08-06T10:14:50;0.63;;;0.30;;
19816;SDS011;68323;49.394;8.434;2023-08-06T10:17:18;1.13;;;0.30;;
19816;SDS011;68323;49.394;8.434;2023-08-06T10:19:44;1.90;;;0.20;;
19816;SDS011;68323;49.394;8.434;2023-08-06T10:22:15;1.10;;;0.20;;
19816;SDS011;68323;49.394;8.434;2023-08-06T10:24:49;0.23;;;0.20;;
19816;SDS011;68323;49.394;8.434;2023-08-06T10:27:32;0.30;;;0.30;;
19816;SDS011;68323;49.394;8.434;2023-08-06T10:32:49;1.30;;;0.30;;
19816;SDS011;68323;49.394;8.434;2023-08-06T10:37:59;0.40;;;0.20;;
19816;SDS011;68323;49.394;8.434;2023-08-06T10:40:35;0.40;;;0.20;;
19816;SDS011;68323;49.394;8.434;2023-08-06T10:43:02;1.50;;;0.30;;
19816;SDS011;68323;49.394;8.434;2023-08-06T10:45:29;1.03;;;0.30;;
19816;SDS011;68323;49.394;8.434;2023-08-06T10:47:55;0.40;;;0.23;;
19816;SDS011;68323;49.394;8.434;2023-08-06T10:50:25;0.40;;;0.40;;
19816;SDS011;68323;49.394;8.434;2023-08-06T10:52:51;0.60;;;0.27;;
19816;SDS011;68323;49.394;8.434;2023-08-06T10:55:27;0.67;;;0.40;;
19816;SDS011;68323;49.394;8.434;2023-08-06T10:57:54;0.70;;;0.30;;
19816;SDS011;68323;49.394;8.434;2023-08-06T11:00:23;0.30;;;0.30;;
19816;SDS011;68323;49.394;8.434;2023-08-06T11:02:49;0.50;;;0.30;;
19816;SDS011;68323;49.394;8.434;2023-08-06T11:05:16;0.90;;;0.30;;
19816;SDS011;68323;49.394;8.434;2023-08-06T11:07:42;0.73;;;0.40;;
19816;SDS011;68323;49.394;8.434;2023-08-06T11:10:08;1.30;;;0.40;;
19816;SDS011;68323;49.394;8.434;2023-08-06T11:12:35;0.60;;;0.40;;
19816;SDS011;68323;49.394;8.434;2023-08-06T11:15:01;0.93;;;0.47;;
19816;SDS011;68323;49.394;8.434;2023-08-06T11:17:28;0.33;;;0.33;;
19816;SDS011;68323;49.394;8.434;2023-08-06T11:19:55;1.43;;;0.40;;
19816;SDS011;68323;49.394;8.434;2023-08-06T11:22:23;1.83;;;0.67;;
19816;SDS011;68323;49.394;8.434;2023-08-06T11:24:49;0.60;;;0.50;;
19816;SDS011;68323;49.394;8.434;2023-08-06T11:27:15;0.60;;;0.50;;
19816;SDS011;68323;49.394;8.434;2023-08-06T11:29:42;1.30;;;0.70;;
19816;SDS011;68323;49.394;8.434;2023-08-06T11:32:08;7.17;;;0.60;;
19816;SDS011;68323;49.394;8.434;2023-08-06T11:34:34;0.70;;;0.40;;
19816;SDS011;68323;49.394;8.434;2023-08-06T11:37:00;1.30;;;0.50;;
19816;SDS011;68323;49.394;8.434;2023-08-06T11:39:29;1.17;;;0.60;;
19816;SDS011;68323;49.394;8.434;2023-08-06T11:41:55;0.90;;;0.50;;
19816;SDS011;68323;49.394;8.434;2023-08-06T11:44:22;1.37;;;0.60;;
19816;SDS011;68323;49.394;8.434;2023-08-06T11:46:55;1.20;;;0.60;;
19816;SDS011;68323;49.394;8.434;2023-08-06T11:49:36;1.10;;;0.60;;
19816;SDS011;68323;49.394;8.434;2023-08-06T11:52:10;0.83;;;0.60;;
19816;SDS011;68323;49.394;8.434;2023-08-06T11:54:39;1.37;;;0.70;;
19816;SDS011;68323;49.394;8.434;2023-08-06T11:57:05;2.30;;;0.70;;
19816;SDS011;68323;49.394;8.434;2023-08-06T11:59:31;1.87;;;0.90;;
19816;SDS011;68323;49.394;8.434;2023-08-06T12:01:57;1.07;;;0.80;;
19816;SDS011;68323;49.394;8.434;2023-08-06T12:04:22;1.27;;;0.70;;
19816;SDS011;68323;49.394;8.434;2023-08-06T12:06:48;1.10;;;0.90;;
19816;SDS011;68323;49.394;8.434;2023-08-06T12:09:13;1.00;;;0.80;;
19816;SDS011;68323;49.394;8.434;2023-08-06T12:11:39;1.43;;;1.00;;
19816;SDS011;68323;49.394;8.434;2023-08-06T12:14:05;1.50;;;0.97;;
19816;SDS011;68323;49.394;8.434;2023-08-06T12:16:30;2.43;;;0.93;;
19816;SDS011;68323;49.394;8.434;2023-08-06T12:18:56;2.87;;;1.17;;
19816;SDS011;68323;49.394;8.434;2023-08-06T12:21:21;2.40;;;0.90;;
19816;SDS011;68323;49.394;8.434;2023-08-06T12:23:47;3.17;;;1.10;;
19816;SDS011;68323;49.394;8.434;2023-08-06T12:26:12;2.03;;;1.03;;
19816;SDS011;68323;49.394;8.434;2023-08-06T12:28:38;1.47;;;0.80;;
19816;SDS011;68323;49.394;8.434;2023-08-06T12:31:03;2.60;;;0.80;;
19816;SDS011;68323;49.394;8.434;2023-08-06T12:33:29;1.80;;;0.70;;
19816;SDS011;68323;49.394;8.434;2023-08-06T12:35:54;1.60;;;0.60;;
19816;SDS011;68323;49.394;8.434;2023-08-06T12:38:20;0.50;;;0.50;;
19816;SDS011;68323;49.394;8.434;2023-08-06T12:40:46;1.43;;;0.73;;
19816;SDS011;68323;49.394;8.434;2023-08-06T12:43:11;1.67;;;0.57;;
19816;SDS011;68323;49.394;8.434;2023-08-06T12:45:37;2.17;;;0.50;;
19816;SDS011;68323;49.394;8.434;2023-08-06T12:48:03;0.50;;;0.50;;
19816;SDS011;68323;49.394;8.434;2023-08-06T12:50:29;1.13;;;0.50;;
19816;SDS011;68323;49.394;8.434;2023-08-06T12:52:54;0.60;;;0.47;;
19816;SDS011;68323;49.394;8.434;2023-08-06T12:55:20;0.67;;;0.50;;
19816;SDS011;68323;49.394;8.434;2023-08-06T12:57:45;1.20;;;0.63;;
19816;SDS011;68323;49.394;8.434;2023-08-06T13:00:11;1.23;;;0.70;;
19816;SDS011;68323;49.394;8.434;2023-08-06T13:02:37;0.77;;;0.57;;
19816;SDS011;68323;49.394;8.434;2023-08-06T13:05:02;1.37;;;0.60;;
19816;SDS011;68323;49.394;8.434;2023-08-06T13:07:30;1.00;;;0.70;;
19816;SDS011;68323;49.394;8.434;2023-08-06T13:09:56;1.50;;;0.53;;
19816;SDS011;68323;49.394;8.434;2023-08-06T13:12:21;0.60;;;0.40;;
19816;SDS011;68323;49.394;8.434;2023-08-06T13:14:48;1.50;;;0.70;;
19816;SDS011;68323;49.394;8.434;2023-08-06T13:17:14;1.60;;;0.80;;
19816;SDS011;68323;49.394;8.434;2023-08-06T13:19:39;3.37;;;0.70;;
19816;SDS011;68323;49.394;8.434;2023-08-06T13:22:05;1.63;;;0.80;;
19816;SDS011;68323;49.394;8.434;2023-08-06T13:24:33;1.60;;;0.77;;
19816;SDS011;68323;49.394;8.434;2023-08-06T13:26:59;1.33;;;0.67;;
19816;SDS011;68323;49.394;8.434;2023-08-06T13:29:25;1.10;;;0.70;;
19816;SDS011;68323;49.394;8.434;2023-08-06T13:31:52;0.80;;;0.60;;
19816;SDS011;68323;49.394;8.434;2023-08-06T13:34:17;2.53;;;0.90;;
19816;SDS011;68323;49.394;8.434;2023-08-06T13:36:43;3.33;;;1.10;;
19816;SDS011;68323;49.394;8.434;2023-08-06T13:39:08;2.10;;;0.80;;
19816;SDS011;68323;49.394;8.434;2023-08-06T13:41:34;2.13;;;0.70;;
19816;SDS011;68323;49.394;8.434;2023-08-06T13:43:59;1.60;;;1.10;;
19816;SDS011;68323;49.394;8.434;2023-08-06T13:46:25;3.67;;;1.07;;
19816;SDS011;68323;49.394;8.434;2023-08-06T13:48:50;1.70;;;0.80;;
19816;SDS011;68323;49.394;8.434;2023-08-06T13:51:16;2.83;;;0.80;;
19816;SDS011;68323;49.394;8.434;2023-08-06T13:53:42;1.93;;;0.70;;
19816;SDS011;68323;49.394;8.434;2023-08-06T13:56:11;2.93;;;0.70;;
19816;SDS011;68323;49.394;8.434;2023-08-06T13:58:37;0.80;;;0.60;;
19816;SDS011;68323;49.394;8.434;2023-08-06T14:01:03;0.97;;;0.70;;
19816;SDS011;68323;49.394;8.434;2023-08-06T14:03:28;0.70;;;0.50;;
19816;SDS011;68323;49.394;8.434;2023-08-06T14:05:54;2.00;;;0.60;;
19816;SDS011;68323;49.394;8.434;2023-08-06T14:08:23;1.20;;;0.80;;
19816;SDS011;68323;49.394;8.434;2023-08-06T14:10:49;0.93;;;0.50;;
19816;SDS011;68323;49.394;8.434;2023-08-06T14:13:15;0.97;;;0.70;;
19816;SDS011;68323;49.394;8.434;2023-08-06T14:15:40;1.47;;;0.70;;
19816;SDS011;68323;49.394;8.434;2023-08-06T14:18:06;4.40;;;0.67;;
19816;SDS011;68323;49.394;8.434;2023-08-06T14:20:35;2.20;;;0.70;;
19816;SDS011;68323;49.394;8.434;2023-08-06T14:23:00;1.60;;;0.90;;
19816;SDS011;68323;49.394;8.434;2023-08-06T14:25:27;2.00;;;1.00;;
19816;SDS011;68323;49.394;8.434;2023-08-06T14:27:52;2.73;;;0.70;;
19816;SDS011;68323;49.394;8.434;2023-08-06T14:30:18;0.87;;;0.60;;
19816;SDS011;68323;49.394;8.434;2023-08-06T14:32:43;1.70;;;0.60;;
19816;SDS011;68323;49.394;8.434;2023-08-06T14:35:09;1.33;;;0.90;;
19816;SDS011;68323;49.394;8.434;2023-08-06T14:37:35;1.93;;;0.70;;
19816;SDS011;68323;49.394;8.434;2023-08-06T14:40:00;1.57;;;0.80;;
19816;SDS011;68323;49.394;8.434;2023-08-06T14:42:26;2.23;;;0.73;;
19816;SDS011;68323;49.394;8.434;2023-08-06T14:44:51;1.20;;;0.70;;
19816;SDS011;68323;49.394;8.434;2023-08-06T14:47:17;1.63;;;0.80;;
19816;SDS011;68323;49.394;8.434;2023-08-06T14:49:42;1.00;;;0.77;;
19816;SDS011;68323;49.394;8.434;2023-08-06T14:52:08;1.27;;;0.60;;
19816;SDS011;68323;49.394;8.434;2023-08-06T14:54:33;1.37;;;0.63;;